createdAt,value
2022-11-29T00:01:33.870Z,-6.26
2022-11-29T00:03:37.660Z,-6.31
2022-11-29T00:05:40.407Z,-6.29
2022-11-29T00:07:43.159Z,-6.30
2022-11-29T00:09:45.881Z,-6.30
2022-11-29T00:12:07.125Z,-6.29
2022-11-29T00:14:12.133Z,-6.30
2022-11-29T00:16:16.002Z,-6.29
2022-11-29T00:18:18.687Z,-6.28
2022-11-29T00:20:21.378Z,-6.26
2022-11-29T00:22:25.546Z,-6.28
2022-11-29T00:24:28.600Z,-6.30
2022-11-29T00:26:31.300Z,-6.32
2022-11-29T00:28:35.309Z,-6.38
2022-11-29T00:30:38.104Z,-6.39
2022-11-29T00:32:40.758Z,-6.38
2022-11-29T00:34:43.706Z,-6.39
2022-11-29T00:36:46.605Z,-6.38
2022-11-29T00:38:49.454Z,-6.39
2022-11-29T00:40:52.903Z,-6.36
2022-11-29T00:42:55.650Z,-6.36
2022-11-29T00:44:58.326Z,-6.35
2022-11-29T00:47:01.081Z,-6.43
2022-11-29T00:49:04.666Z,-6.42
2022-11-29T00:51:07.927Z,-6.45
2022-11-29T00:53:10.747Z,-6.42
2022-11-29T00:55:13.391Z,-6.43
2022-11-29T00:57:16.064Z,-6.40
2022-11-29T00:59:18.791Z,-6.39
2022-11-29T01:01:21.543Z,-6.37
2022-11-29T01:03:24.847Z,-6.41
2022-11-29T01:05:27.564Z,-6.42
2022-11-29T01:07:30.301Z,-6.47
2022-11-29T01:09:33.043Z,-6.42
2022-11-29T01:11:35.951Z,-6.42
2022-11-29T01:13:39.302Z,-6.42
2022-11-29T01:15:42.346Z,-6.51
2022-11-29T01:17:45.090Z,-6.38
2022-11-29T01:19:50.811Z,-6.32
2022-11-29T01:21:53.919Z,-6.29
2022-11-29T01:23:57.190Z,-6.32
2022-11-29T01:26:02.934Z,-6.31
2022-11-29T01:28:05.634Z,-6.31
2022-11-29T01:30:10.310Z,-6.29
2022-11-29T01:32:13.026Z,-6.37
2022-11-29T01:34:15.671Z,-6.36
2022-11-29T01:36:18.439Z,-6.41
2022-11-29T01:38:22.618Z,-6.41
2022-11-29T01:40:25.298Z,-6.40
2022-11-29T01:42:28.066Z,-6.37
2022-11-29T01:44:30.910Z,-6.38
2022-11-29T01:46:37.000Z,-6.37
2022-11-29T01:48:39.896Z,-6.35
2022-11-29T01:50:43.381Z,-6.34
2022-11-29T01:52:46.559Z,-6.35
2022-11-29T01:54:53.001Z,-6.26
2022-11-29T01:56:56.218Z,-6.30
2022-11-29T01:59:02.589Z,-6.26
2022-11-29T02:01:05.310Z,-6.30
2022-11-29T02:03:17.104Z,-6.32
2022-11-29T02:05:20.368Z,-6.36
2022-11-29T02:07:23.099Z,-6.38
2022-11-29T02:09:25.846Z,-6.43
2022-11-29T02:11:31.155Z,-6.35
2022-11-29T02:13:52.818Z,-6.35
2022-11-29T02:16:23.878Z,-6.30
2022-11-29T02:19:14.223Z,-6.27
2022-11-29T02:21:34.279Z,-6.30
2022-11-29T02:24:01.302Z,-6.35
2022-11-29T02:26:37.873Z,-6.36
2022-11-29T02:28:49.468Z,-6.38
2022-11-29T02:31:29.299Z,-6.40
2022-11-29T02:34:07.100Z,-6.46
2022-11-29T02:36:32.094Z,-6.55
2022-11-29T02:38:56.487Z,-6.60
2022-11-29T02:41:31.151Z,-6.56
2022-11-29T02:44:12.683Z,-6.56
2022-11-29T02:46:45.550Z,-6.54
2022-11-29T02:48:58.462Z,-6.53
2022-11-29T02:51:24.376Z,-6.53
2022-11-29T02:53:37.453Z,-6.52
2022-11-29T02:56:24.128Z,-6.50
2022-11-29T02:58:35.674Z,-6.48
2022-11-29T03:00:50.439Z,-6.46
2022-11-29T03:03:04.813Z,-6.46
2022-11-29T03:05:17.975Z,-6.47
2022-11-29T03:07:20.678Z,-6.46
2022-11-29T03:09:33.426Z,-6.45
2022-11-29T03:12:08.115Z,-6.45
2022-11-29T03:14:52.516Z,-6.46
2022-11-29T03:17:09.132Z,-6.48
2022-11-29T03:19:37.372Z,-6.52
2022-11-29T03:22:10.287Z,-6.52
2022-11-29T03:24:18.837Z,-6.51
2022-11-29T03:26:30.045Z,-6.50
2022-11-29T03:28:38.401Z,-6.53
2022-11-29T03:30:50.036Z,-6.63
2022-11-29T03:33:31.023Z,-6.62
2022-11-29T03:36:30.298Z,-6.59
2022-11-29T03:38:47.883Z,-6.59
2022-11-29T03:41:10.354Z,-6.60
2022-11-29T03:43:30.845Z,-6.64
2022-11-29T03:45:42.879Z,-6.66
2022-11-29T03:48:05.413Z,-6.66
2022-11-29T03:50:16.562Z,-6.72
2022-11-29T03:52:48.231Z,-6.86
2022-11-29T03:55:03.487Z,-6.83
2022-11-29T03:57:07.252Z,-6.78
2022-11-29T03:59:12.637Z,-6.75
2022-11-29T04:01:41.626Z,-6.73
2022-11-29T04:04:08.300Z,-6.69
2022-11-29T04:06:19.954Z,-6.67
2022-11-29T04:09:00.204Z,-6.68
2022-11-29T04:11:30.551Z,-6.69
2022-11-29T04:14:02.058Z,-6.71
2022-11-29T04:16:28.647Z,-6.71
2022-11-29T04:18:46.004Z,-6.69
2022-11-29T04:21:32.851Z,-6.69
2022-11-29T04:23:51.920Z,-6.72
2022-11-29T04:26:39.213Z,-6.70
2022-11-29T04:29:12.997Z,-6.70
2022-11-29T04:31:38.333Z,-6.71
2022-11-29T04:33:59.573Z,-6.69
2022-11-29T04:36:25.365Z,-6.70
2022-11-29T04:38:50.770Z,-6.69
2022-11-29T04:41:22.525Z,-6.68
2022-11-29T04:43:25.095Z,-6.68
2022-11-29T04:45:55.497Z,-6.70
2022-11-29T04:48:10.906Z,-6.69
2022-11-29T04:50:19.543Z,-6.71
2022-11-29T04:53:07.367Z,-6.63
2022-11-29T04:55:30.863Z,-6.57
2022-11-29T04:58:03.247Z,-6.50
2022-11-29T05:00:32.825Z,-6.59
2022-11-29T05:02:40.071Z,-6.51
2022-11-29T05:05:24.675Z,-6.63
2022-11-29T05:07:57.886Z,-6.56
2022-11-29T05:10:29.593Z,-6.60
2022-11-29T05:12:48.723Z,-6.75
2022-11-29T05:15:26.943Z,-6.80
2022-11-29T05:17:57.693Z,-6.85
2022-11-29T05:20:24.484Z,-6.88
2022-11-29T05:22:53.222Z,-6.88
2022-11-29T05:25:27.804Z,-6.87
2022-11-29T05:27:58.803Z,-6.86
2022-11-29T05:30:22.167Z,-6.88
2022-11-29T05:32:24.629Z,-6.89
2022-11-29T05:34:53.345Z,-6.85
2022-11-29T05:37:17.800Z,-6.84
2022-11-29T05:39:32.597Z,-6.83
2022-11-29T05:41:43.949Z,-6.82
2022-11-29T05:44:10.637Z,-6.78
2022-11-29T05:46:23.283Z,-6.74
2022-11-29T05:49:18.175Z,-6.74
2022-11-29T05:51:29.605Z,-6.72
2022-11-29T05:53:50.141Z,-6.70
2022-11-29T05:56:10.886Z,-6.76
2022-11-29T05:58:19.394Z,-6.79
2022-11-29T06:00:22.611Z,-6.85
2022-11-29T06:02:28.166Z,-6.88
2022-11-29T06:05:04.149Z,-6.77
2022-11-29T06:07:24.976Z,-6.73
2022-11-29T06:09:57.040Z,-6.69
2022-11-29T06:12:24.468Z,-6.59
2022-11-29T06:14:49.459Z,-6.48
2022-11-29T06:16:57.759Z,-6.43
2022-11-29T06:23:11.715Z,-6.50
2022-11-29T06:25:33.143Z,-6.53
2022-11-29T06:28:06.879Z,-6.56
2022-11-29T06:30:16.166Z,-6.56
2022-11-29T06:32:22.065Z,-6.59
2022-11-29T06:34:38.480Z,-6.61
2022-11-29T06:37:20.261Z,-6.59
2022-11-29T06:39:23.239Z,-6.65
2022-11-29T06:41:26.275Z,-6.73
2022-11-29T06:43:29.902Z,-6.73
2022-11-29T06:45:32.922Z,-6.69
2022-11-29T06:47:49.955Z,-6.78
2022-11-29T06:50:04.675Z,-6.78
2022-11-29T06:52:27.590Z,-6.76
2022-11-29T06:54:52.184Z,-6.65
2022-11-29T06:57:00.608Z,-6.60
2022-11-29T06:59:14.188Z,-6.48
2022-11-29T07:01:43.999Z,-6.35
2022-11-29T07:03:49.159Z,-6.34
2022-11-29T07:05:52.270Z,-6.31
2022-11-29T07:07:57.474Z,-6.28
2022-11-29T07:10:04.907Z,-6.17
2022-11-29T07:12:08.105Z,-6.12
2022-11-29T07:14:11.240Z,-6.12
2022-11-29T07:16:42.424Z,-6.13
2022-11-29T07:19:02.135Z,-6.07
2022-11-29T07:21:28.602Z,-6.04
2022-11-29T07:24:01.416Z,-6.02
2022-11-29T07:26:31.926Z,-5.99
2022-11-29T07:29:07.481Z,-5.93
2022-11-29T07:31:36.215Z,-5.88
2022-11-29T07:34:06.282Z,-5.89
2022-11-29T07:36:22.527Z,-5.87
2022-11-29T07:38:47.149Z,-5.87
2022-11-29T07:41:03.419Z,-5.81
2022-11-29T07:43:15.172Z,-5.70
2022-11-29T07:45:32.321Z,-5.65
2022-11-29T07:47:36.088Z,-5.59
2022-11-29T07:49:39.173Z,-5.62
2022-11-29T07:51:42.006Z,-5.57
2022-11-29T07:53:45.628Z,-5.56
2022-11-29T07:55:49.660Z,-5.58
2022-11-29T07:57:53.288Z,-5.59
2022-11-29T07:59:56.057Z,-5.61
2022-11-29T08:01:59.517Z,-5.56
2022-11-29T08:04:02.565Z,-5.52
2022-11-29T08:06:05.435Z,-5.45
2022-11-29T08:08:08.325Z,-5.45
2022-11-29T08:29:11.202Z,-5.04
2022-11-29T08:31:14.209Z,-5.55
2022-11-29T08:33:16.694Z,-5.73
2022-11-29T08:35:21.179Z,-5.84
2022-11-29T08:37:23.689Z,-5.77
2022-11-29T08:39:26.218Z,-5.74
2022-11-29T08:45:41.078Z,-5.69
2022-11-29T08:47:43.825Z,-5.62
2022-11-29T08:50:01.349Z,-5.89
2022-11-29T08:52:28.169Z,-6.03
2022-11-29T08:54:30.799Z,-6.00
2022-11-29T08:57:16.419Z,-6.28
2022-11-29T08:58:56.040Z,-6.27
2022-11-29T09:00:58.612Z,-6.13
2022-11-29T09:03:24.937Z,-6.01
2022-11-29T09:05:27.546Z,-5.98
2022-11-29T09:07:30.151Z,-5.82
2022-11-29T09:09:32.680Z,-5.74
2022-11-29T09:11:36.414Z,-5.84
2022-11-29T09:13:41.256Z,-5.87
2022-11-29T09:15:43.829Z,-5.93
2022-11-29T09:17:46.501Z,-6.03
2022-11-29T09:19:49.145Z,-6.16
2022-11-29T09:21:51.716Z,-6.01
2022-11-29T09:23:59.297Z,-5.92
2022-11-29T09:26:02.207Z,-5.89
2022-11-29T09:28:04.941Z,-5.88
2022-11-29T09:30:08.693Z,-5.98
2022-11-29T09:32:11.327Z,-5.97
2022-11-29T09:34:15.225Z,-5.88
2022-11-29T09:36:17.955Z,-5.84
2022-11-29T09:38:22.524Z,-5.79
2022-11-29T09:40:37.493Z,-5.77
2022-11-29T09:43:15.312Z,-5.80
2022-11-29T09:45:21.340Z,-5.72
2022-11-29T09:47:33.191Z,-5.69
2022-11-29T09:49:54.281Z,-5.64
2022-11-29T09:52:28.452Z,-5.60
2022-11-29T09:54:36.731Z,-5.56
2022-11-29T09:56:47.735Z,-5.58
2022-11-29T09:58:59.071Z,-5.82
2022-11-29T10:01:06.656Z,-6.02
2022-11-29T10:03:37.323Z,-6.17
2022-11-29T10:05:51.042Z,-6.40
2022-11-29T10:08:03.435Z,-6.55
2022-11-29T10:10:22.996Z,-6.73
2022-11-29T10:12:57.854Z,-6.64
2022-11-29T10:15:13.219Z,-6.43
2022-11-29T10:17:24.842Z,-6.28
2022-11-29T10:19:30.231Z,-6.29
2022-11-29T10:21:36.833Z,-6.51
2022-11-29T10:23:46.515Z,-6.64
2022-11-29T10:25:52.806Z,-6.83
2022-11-29T10:27:55.613Z,-6.77
2022-11-29T10:30:01.083Z,-6.77
2022-11-29T10:32:14.192Z,-6.69
2022-11-29T10:34:20.097Z,-6.67
2022-11-29T10:36:42.435Z,-6.85
2022-11-29T10:38:48.049Z,-6.85
2022-11-29T10:40:59.071Z,-6.90
2022-11-29T10:43:02.533Z,-6.92
2022-11-29T10:45:27.766Z,-6.99
2022-11-29T10:47:31.910Z,-7.04
2022-11-29T10:49:36.464Z,-7.03
2022-11-29T10:51:39.212Z,-7.00
2022-11-29T10:53:42.473Z,-6.99
2022-11-29T10:56:00.499Z,-7.02
2022-11-29T10:58:14.896Z,-7.03
2022-11-29T11:00:17.803Z,-6.97
2022-11-29T11:02:24.375Z,-7.06
2022-11-29T11:04:43.315Z,-7.05
2022-11-29T11:06:48.401Z,-7.10
2022-11-29T11:09:14.817Z,-7.10
2022-11-29T11:11:32.181Z,-7.12
2022-11-29T11:13:36.681Z,-7.07
2022-11-29T11:15:39.230Z,-7.08
2022-11-29T11:18:05.537Z,-7.03
2022-11-29T11:20:25.098Z,-6.94
2022-11-29T11:22:30.876Z,-6.98
2022-11-29T11:24:39.509Z,-6.84
2022-11-29T11:26:44.829Z,-6.70
2022-11-29T11:29:01.974Z,-6.64
2022-11-29T11:31:09.259Z,-6.64
2022-11-29T11:33:20.216Z,-6.70
2022-11-29T11:35:24.626Z,-7.00
2022-11-29T11:37:35.882Z,-7.11
2022-11-29T11:39:41.186Z,-7.02
2022-11-29T11:42:04.703Z,-6.94
2022-11-29T11:44:58.540Z,-7.02
2022-11-29T11:47:02.785Z,-7.14
2022-11-29T11:49:14.296Z,-7.13
2022-11-29T11:51:28.583Z,-7.06
2022-11-29T11:53:36.523Z,-7.00
2022-11-29T11:55:46.540Z,-6.99
2022-11-29T11:58:07.700Z,-6.94
2022-11-29T12:01:03.041Z,-7.05
2022-11-29T12:03:04.996Z,-7.08
2022-11-29T12:05:19.705Z,-7.00
2022-11-29T12:08:07.313Z,-6.95
2022-11-29T12:10:16.627Z,-6.94
2022-11-29T12:12:26.109Z,-6.88
2022-11-29T12:14:31.643Z,-6.88
2022-11-29T12:16:39.438Z,-6.92
2022-11-29T12:18:51.937Z,-7.18
2022-11-29T12:21:21.834Z,-7.24
2022-11-29T12:23:31.425Z,-7.28
2022-11-29T12:25:43.344Z,-7.42
2022-11-29T12:27:48.677Z,-7.33
2022-11-29T12:29:52.294Z,-7.35
2022-11-29T12:32:00.253Z,-7.38
2022-11-29T12:34:08.905Z,-7.32
2022-11-29T12:36:35.006Z,-7.26
2022-11-29T12:38:49.767Z,-7.25
2022-11-29T12:41:14.020Z,-7.29
2022-11-29T12:43:48.527Z,-7.31
2022-11-29T12:46:28.465Z,-7.30
2022-11-29T12:48:55.629Z,-7.45
2022-11-29T12:51:36.682Z,-7.50
2022-11-29T12:56:41.164Z,-7.41
2022-11-29T12:58:46.696Z,-7.48
2022-11-29T13:01:12.973Z,-7.54
2022-11-29T13:03:27.401Z,-7.65
2022-11-29T13:11:07.459Z,-7.65
2022-11-29T13:13:40.235Z,-7.62
2022-11-29T13:15:52.765Z,-7.64
2022-11-29T13:18:13.166Z,-7.79
2022-11-29T13:20:34.777Z,-7.69
2022-11-29T13:22:49.222Z,-7.61
2022-11-29T13:25:01.349Z,-7.58
2022-11-29T13:27:07.482Z,-7.58
2022-11-29T13:29:17.049Z,-7.52
2022-11-29T13:31:22.770Z,-7.50
2022-11-29T13:33:52.336Z,-7.55
2022-11-29T13:36:06.706Z,-7.61
2022-11-29T13:38:36.958Z,-7.71
2022-11-29T13:40:53.260Z,-7.72
2022-11-29T13:43:23.572Z,-7.75
2022-11-29T13:45:42.671Z,-7.74
2022-11-29T13:47:59.508Z,-7.74
2022-11-29T13:50:07.485Z,-7.76
2022-11-29T13:52:23.084Z,-7.79
2022-11-29T13:54:32.412Z,-7.89
2022-11-29T13:56:47.907Z,-7.90
2022-11-29T13:58:54.492Z,-7.81
2022-11-29T14:01:06.808Z,-7.75
2022-11-29T14:03:25.487Z,-7.76
2022-11-29T14:05:29.849Z,-7.73
2022-11-29T14:07:33.410Z,-7.73
2022-11-29T14:09:44.256Z,-7.80
2022-11-29T14:12:17.238Z,-7.76
2022-11-29T14:14:26.647Z,-7.87
2022-11-29T14:16:47.476Z,-7.89
2022-11-29T14:19:05.332Z,-7.94
2022-11-29T14:21:08.292Z,-7.99
2022-11-29T14:23:15.198Z,-8.02
2022-11-29T14:27:57.437Z,-8.08
2022-11-29T14:30:02.824Z,-8.09
2022-11-29T14:32:30.220Z,-7.98
2022-11-29T14:34:38.201Z,-7.92
2022-11-29T14:37:15.441Z,-8.02
2022-11-29T14:39:27.435Z,-8.03
2022-11-29T14:41:43.248Z,-7.94
2022-11-29T14:43:45.931Z,-8.02
2022-11-29T14:46:08.491Z,-8.03
2022-11-29T14:48:45.736Z,-8.05
2022-11-29T14:50:48.345Z,-8.03
2022-11-29T14:52:51.884Z,-7.97
2022-11-29T14:55:26.426Z,-7.92
2022-11-29T14:57:47.392Z,-7.80
2022-11-29T14:59:52.942Z,-7.73
2022-11-29T15:01:56.905Z,-7.66
2022-11-29T15:04:06.862Z,-7.68
2022-11-29T15:06:18.211Z,-7.59
2022-11-29T15:08:33.247Z,-7.61
2022-11-29T15:10:48.163Z,-7.57
2022-11-29T15:12:52.675Z,-7.57
2022-11-29T15:15:12.272Z,-7.55
2022-11-29T15:17:45.731Z,-7.69
2022-11-29T15:19:56.241Z,-7.68
2022-11-29T15:22:19.652Z,-7.66
2022-11-29T15:24:28.033Z,-7.61
2022-11-29T15:26:32.315Z,-7.54
2022-11-29T15:28:34.864Z,-7.53
2022-11-29T15:30:40.055Z,-7.48
2022-11-29T15:32:43.815Z,-7.52
2022-11-29T15:34:51.823Z,-7.53
2022-11-29T15:36:54.433Z,-7.53
2022-11-29T15:38:59.311Z,-7.54
2022-11-29T15:41:01.917Z,-7.60
2022-11-29T15:43:19.356Z,-7.72
2022-11-29T15:45:30.769Z,-7.84
2022-11-29T15:47:33.307Z,-7.81
2022-11-29T15:49:35.880Z,-7.72
2022-11-29T15:51:39.357Z,-7.66
2022-11-29T15:53:50.002Z,-7.65
2022-11-29T15:55:56.274Z,-7.57
2022-11-29T15:58:07.037Z,-7.61
2022-11-29T16:00:24.291Z,-7.63
2022-11-29T16:02:32.806Z,-7.70
2022-11-29T16:04:46.436Z,-7.87
2022-11-29T16:06:50.544Z,-7.85
2022-11-29T16:08:54.759Z,-7.84
2022-11-29T16:10:57.947Z,-7.81
2022-11-29T16:13:23.134Z,-7.79
2022-11-29T16:15:28.658Z,-7.72
2022-11-29T16:17:33.897Z,-7.70
2022-11-29T16:19:38.151Z,-7.69
2022-11-29T16:21:43.981Z,-7.71
2022-11-29T16:23:46.940Z,-7.71
2022-11-29T16:26:19.180Z,-7.72
2022-11-29T16:28:22.384Z,-7.69
2022-11-29T16:30:28.244Z,-7.62
2022-11-29T16:32:34.726Z,-7.69
2022-11-29T16:34:43.093Z,-7.71
2022-11-29T16:36:46.007Z,-7.68
2022-11-29T16:38:52.951Z,-7.66
2022-11-29T16:41:08.184Z,-7.62
2022-11-29T16:43:41.193Z,-7.61
2022-11-29T16:45:44.103Z,-7.58
2022-11-29T16:47:58.082Z,-7.56
2022-11-29T16:50:03.504Z,-7.54
2022-11-29T16:52:24.982Z,-7.50
2022-11-29T16:54:33.973Z,-7.50
2022-11-29T16:56:39.209Z,-7.47
2022-11-29T16:59:20.491Z,-7.50
2022-11-29T17:01:27.076Z,-7.51
2022-11-29T17:03:29.704Z,-7.52
2022-11-29T17:05:32.462Z,-7.53
2022-11-29T17:07:37.941Z,-7.60
2022-11-29T17:09:40.677Z,-7.60
2022-11-29T17:11:43.419Z,-7.56
2022-11-29T17:13:49.034Z,-7.53
2022-11-29T17:15:51.826Z,-7.51
2022-11-29T17:17:54.673Z,-7.54
2022-11-29T17:19:57.379Z,-7.75
2022-11-29T17:22:00.136Z,-7.82
2022-11-29T17:24:02.737Z,-7.82
2022-11-29T17:26:05.499Z,-7.88
2022-11-29T17:28:08.193Z,-7.93
2022-11-29T17:30:11.539Z,-7.93
2022-11-29T17:32:14.230Z,-7.95
2022-11-29T17:34:17.043Z,-7.95
2022-11-29T17:36:21.079Z,-7.95
2022-11-29T17:38:25.077Z,-7.97
2022-11-29T17:40:27.760Z,-7.90
2022-11-29T17:42:30.446Z,-7.88
2022-11-29T17:44:34.516Z,-7.84
2022-11-29T17:46:37.712Z,-7.87
2022-11-29T17:48:40.892Z,-7.84
2022-11-29T17:50:43.632Z,-7.81
2022-11-29T17:52:46.377Z,-7.77
2022-11-29T17:54:49.154Z,-7.79
2022-11-29T17:56:52.297Z,-7.79
2022-11-29T17:58:56.891Z,-7.82
2022-11-29T18:01:19.989Z,-7.82
2022-11-29T18:03:23.105Z,-7.76
2022-11-29T18:05:30.129Z,-7.73
2022-11-29T18:07:55.503Z,-7.74
2022-11-29T18:09:58.202Z,-7.73
2022-11-29T18:12:01.323Z,-7.71
2022-11-29T18:14:04.356Z,-7.66
2022-11-29T18:16:10.198Z,-7.66
2022-11-29T18:18:12.842Z,-7.72
2022-11-29T18:20:15.542Z,-7.79
2022-11-29T18:22:18.279Z,-7.78
2022-11-29T18:24:20.990Z,-7.76
2022-11-29T18:26:25.185Z,-7.73
2022-11-29T18:28:29.274Z,-7.74
2022-11-29T18:30:31.928Z,-7.73
2022-11-29T18:32:34.685Z,-7.74
2022-11-29T18:34:37.362Z,-7.71
2022-11-29T18:36:45.273Z,-7.78
2022-11-29T18:38:48.806Z,-7.70
2022-11-29T18:40:51.497Z,-7.71
2022-11-29T18:42:54.067Z,-7.71
2022-11-29T18:44:58.841Z,-7.70
2022-11-29T18:47:01.706Z,-7.65
2022-11-29T18:49:06.910Z,-7.65
2022-11-29T18:51:20.658Z,-7.58
2022-11-29T18:53:23.260Z,-7.58
2022-11-29T18:55:26.362Z,-7.55
2022-11-29T18:57:29.035Z,-7.59
2022-11-29T18:59:31.711Z,-7.56
2022-11-29T19:01:38.003Z,-7.53
2022-11-29T19:03:43.385Z,-7.52
2022-11-29T19:05:54.374Z,-7.51
2022-11-29T19:07:57.087Z,-7.50
2022-11-29T19:10:00.183Z,-7.52
2022-11-29T19:12:03.967Z,-7.55
2022-11-29T19:14:12.975Z,-7.56
2022-11-29T19:16:18.412Z,-7.54
2022-11-29T19:18:22.102Z,-7.52
2022-11-29T19:20:24.716Z,-7.52
2022-11-29T19:22:27.645Z,-7.52
2022-11-29T19:24:30.249Z,-7.51
2022-11-29T19:26:33.732Z,-7.51
2022-11-29T19:28:37.905Z,-7.58
2022-11-29T19:30:40.653Z,-7.56
2022-11-29T19:32:44.062Z,-7.56
2022-11-29T19:34:46.746Z,-7.56
2022-11-29T19:36:49.337Z,-7.53
2022-11-29T19:38:54.115Z,-7.61
2022-11-29T19:40:57.149Z,-7.64
2022-11-29T19:42:59.695Z,-7.72
2022-11-29T19:45:16.538Z,-7.71
2022-11-29T19:47:19.997Z,-7.60
2022-11-29T19:49:22.617Z,-7.56
2022-11-29T19:51:26.463Z,-7.52
2022-11-29T19:53:29.788Z,-7.54
2022-11-29T19:55:33.961Z,-7.57
2022-11-29T19:57:37.308Z,-7.64
2022-11-29T19:59:39.955Z,-7.59
2022-11-29T20:01:43.140Z,-7.56
2022-11-29T20:03:46.315Z,-7.68
2022-11-29T20:05:55.933Z,-7.61
2022-11-29T20:07:58.655Z,-7.64
2022-11-29T20:10:01.321Z,-7.66
2022-11-29T20:12:06.351Z,-7.71
2022-11-29T20:14:11.929Z,-7.71
2022-11-29T20:16:18.607Z,-7.68
2022-11-29T20:18:21.338Z,-7.68
2022-11-29T20:20:24.075Z,-7.67
2022-11-29T20:22:26.764Z,-7.70
2022-11-29T20:24:33.371Z,-7.73
2022-11-29T20:26:41.019Z,-7.75
2022-11-29T20:28:44.517Z,-7.73
2022-11-29T20:30:47.142Z,-7.74
2022-11-29T20:32:49.861Z,-7.82
2022-11-29T20:34:52.720Z,-7.76
2022-11-29T20:37:27.391Z,-7.87
2022-11-29T20:39:42.147Z,-7.86
2022-11-29T20:41:53.666Z,-7.87
2022-11-29T20:44:02.030Z,-7.89
2022-11-29T20:46:04.796Z,-7.88
2022-11-29T20:48:14.587Z,-7.90
2022-11-29T20:50:24.039Z,-7.90
2022-11-29T20:52:26.882Z,-7.87
2022-11-29T20:54:29.537Z,-7.84
2022-11-29T20:56:32.231Z,-7.83
2022-11-29T20:58:34.954Z,-7.84
2022-11-29T21:00:37.563Z,-7.88
2022-11-29T21:02:40.223Z,-7.82
2022-11-29T21:04:42.821Z,-7.79
2022-11-29T21:06:45.716Z,-7.81
2022-11-29T21:08:49.030Z,-7.89
2022-11-29T21:10:52.789Z,-7.90
2022-11-29T21:12:56.306Z,-7.87
2022-11-29T21:14:59.187Z,-7.91
2022-11-29T21:17:02.116Z,-7.89
2022-11-29T21:19:05.113Z,-7.91
2022-11-29T21:21:24.943Z,-7.89
2022-11-29T21:23:37.591Z,-7.89
2022-11-29T21:26:19.244Z,-7.90
2022-11-29T21:28:28.267Z,-7.91
2022-11-29T21:30:31.055Z,-7.99
2022-11-29T21:32:34.318Z,-8.00
2022-11-29T21:34:36.870Z,-7.99
2022-11-29T21:36:40.179Z,-7.98
2022-11-29T21:38:42.912Z,-7.98
2022-11-29T21:40:45.512Z,-7.97
2022-11-29T21:42:48.109Z,-7.99
2022-11-29T21:44:50.710Z,-8.00
2022-11-29T21:46:53.347Z,-7.99
2022-11-29T21:48:56.007Z,-8.03
2022-11-29T21:50:58.545Z,-7.99
2022-11-29T21:53:01.056Z,-8.00
2022-11-29T21:55:04.047Z,-8.03
2022-11-29T21:57:06.697Z,-8.06
2022-11-29T21:59:09.292Z,-8.07
2022-11-29T22:01:16.479Z,-8.06
2022-11-29T22:03:19.616Z,-8.05
2022-11-29T22:05:22.179Z,-8.10
2022-11-29T22:07:24.807Z,-8.08
2022-11-29T22:09:27.417Z,-8.05
2022-11-29T22:11:31.111Z,-8.05
2022-11-29T22:13:34.644Z,-8.00
2022-11-29T22:15:37.261Z,-7.99
2022-11-29T22:17:40.636Z,-7.99
2022-11-29T22:19:43.264Z,-8.01
2022-11-29T22:21:49.052Z,-8.02
2022-11-29T22:23:52.740Z,-8.00
2022-11-29T22:25:55.340Z,-8.02
2022-11-29T22:27:57.937Z,-7.99
2022-11-29T22:30:00.526Z,-7.99
2022-11-29T22:32:03.322Z,-8.00
2022-11-29T22:34:05.939Z,-7.97
2022-11-29T22:36:11.305Z,-8.00
2022-11-29T22:38:13.952Z,-7.97
2022-11-29T22:40:17.200Z,-7.98
2022-11-29T22:42:19.868Z,-8.08
2022-11-29T22:44:26.029Z,-8.06
2022-11-29T22:46:29.783Z,-8.02
2022-11-29T22:48:38.423Z,-8.03
2022-11-29T22:50:41.701Z,-7.98
2022-11-29T22:52:44.269Z,-7.99
2022-11-29T22:54:47.242Z,-8.03
2022-11-29T22:56:50.120Z,-7.99
2022-11-29T22:58:53.215Z,-7.96
2022-11-29T23:01:14.321Z,-8.06
2022-11-29T23:03:16.974Z,-8.06
2022-11-29T23:05:19.632Z,-8.02
2022-11-29T23:07:22.249Z,-8.01
2022-11-29T23:09:24.961Z,-7.99
2022-11-29T23:11:30.455Z,-8.01
2022-11-29T23:13:35.712Z,-7.96
2022-11-29T23:15:38.322Z,-8.01
2022-11-29T23:17:40.993Z,-8.07
2022-11-29T23:19:43.515Z,-8.04
2022-11-29T23:21:46.613Z,-8.09
2022-11-29T23:23:55.872Z,-8.10
2022-11-29T23:25:59.511Z,-8.04
2022-11-29T23:28:02.104Z,-8.01
2022-11-29T23:30:06.301Z,-7.96
2022-11-29T23:32:09.033Z,-7.98
2022-11-29T23:34:11.772Z,-7.94
2022-11-29T23:36:14.889Z,-7.90
2022-11-29T23:38:18.094Z,-7.93
2022-11-29T23:40:20.709Z,-7.99
2022-11-29T23:42:23.856Z,-7.92
2022-11-29T23:44:26.349Z,-7.91
2022-11-29T23:46:28.883Z,-7.92
2022-11-29T23:48:31.421Z,-7.88
2022-11-29T23:50:34.306Z,-7.98
2022-11-29T23:52:37.511Z,-8.02
2022-11-29T23:54:40.138Z,-8.20
2022-11-29T23:56:42.713Z,-8.22
2022-11-29T23:58:45.700Z,-8.19
